createdAt,value
2019-01-24T00:01:52.168Z,9.18
2019-01-24T00:04:22.628Z,8.35
2019-01-24T00:06:52.989Z,8.60
2019-01-24T00:09:23.346Z,8.58
2019-01-24T00:11:53.776Z,8.95
2019-01-24T00:14:24.203Z,8.10
2019-01-24T00:16:54.513Z,8.95
2019-01-24T00:19:24.939Z,8.25
2019-01-24T00:21:55.438Z,8.48
2019-01-24T00:24:25.898Z,8.08
2019-01-24T00:26:56.359Z,7.53
2019-01-24T00:29:26.846Z,8.05
2019-01-24T00:31:57.584Z,8.05
2019-01-24T00:34:28.020Z,8.20
2019-01-24T00:36:58.433Z,8.60
2019-01-24T00:39:28.898Z,7.58
2019-01-24T00:41:59.402Z,8.68
2019-01-24T00:44:29.769Z,8.28
2019-01-24T00:47:00.241Z,7.60
2019-01-24T00:49:31.741Z,7.72
2019-01-24T00:52:02.157Z,7.37
2019-01-24T00:54:32.621Z,8.10
2019-01-24T00:57:03.022Z,8.28
2019-01-24T00:59:33.385Z,7.75
2019-01-24T01:02:03.765Z,7.30
2019-01-24T01:04:34.240Z,7.65
2019-01-24T01:07:04.621Z,7.70
2019-01-24T01:09:35.087Z,7.62
2019-01-24T01:12:05.593Z,8.28
2019-01-24T01:14:36.112Z,7.08
2019-01-24T01:17:06.531Z,7.25
2019-01-24T01:19:36.947Z,7.97
2019-01-24T01:22:07.312Z,6.85
2019-01-24T01:24:37.740Z,7.40
2019-01-24T01:27:08.157Z,7.55
2019-01-24T01:29:38.640Z,7.55
2019-01-24T01:32:09.062Z,6.85
2019-01-24T01:34:39.450Z,7.40
2019-01-24T01:37:09.869Z,6.97
2019-01-24T01:39:40.208Z,6.92
2019-01-24T01:42:10.652Z,6.62
2019-01-24T01:44:41.089Z,6.47
2019-01-24T01:47:11.589Z,7.20
2019-01-24T01:49:42.098Z,6.75
2019-01-24T01:52:12.422Z,6.83
2019-01-24T01:54:42.769Z,7.58
2019-01-24T01:57:13.092Z,6.87
2019-01-24T01:59:43.653Z,7.15
2019-01-24T02:02:14.026Z,6.37
2019-01-24T02:04:44.475Z,7.45
2019-01-24T02:07:14.946Z,6.55
2019-01-24T02:09:45.295Z,6.90
2019-01-24T02:12:15.824Z,6.75
2019-01-24T02:14:46.218Z,7.08
2019-01-24T02:17:16.677Z,6.33
2019-01-24T02:19:47.136Z,6.67
2019-01-24T02:22:17.655Z,6.50
2019-01-24T02:24:48.208Z,6.72
2019-01-24T02:27:18.630Z,6.42
2019-01-24T02:29:50.014Z,6.30
2019-01-24T02:32:20.526Z,6.40
2019-01-24T02:34:51.006Z,5.97
2019-01-24T02:37:21.295Z,5.92
2019-01-24T02:39:51.794Z,6.25
2019-01-24T02:42:23.234Z,5.95
2019-01-24T02:44:53.899Z,5.97
2019-01-24T02:47:24.432Z,6.78
2019-01-24T02:49:54.896Z,5.87
2019-01-24T02:52:25.353Z,5.80
2019-01-24T02:54:55.809Z,5.78
2019-01-24T02:57:26.172Z,5.87
2019-01-24T02:59:56.436Z,6.35
2019-01-24T03:02:26.769Z,6.12
2019-01-24T03:04:57.307Z,5.70
2019-01-24T03:07:27.696Z,5.53
2019-01-24T03:09:59.092Z,5.60
2019-01-24T03:12:29.542Z,5.75
2019-01-24T03:14:59.962Z,5.58
2019-01-24T03:17:30.410Z,5.50
2019-01-24T03:20:00.915Z,5.95
2019-01-24T03:22:31.468Z,5.70
2019-01-24T03:25:01.908Z,5.83
2019-01-24T03:27:32.322Z,5.33
2019-01-24T03:30:02.826Z,5.40
2019-01-24T03:32:33.347Z,5.55
2019-01-24T03:35:04.298Z,5.15
2019-01-24T03:37:35.104Z,5.37
2019-01-24T03:40:06.107Z,5.95
2019-01-24T03:42:36.477Z,5.45
2019-01-24T03:45:08.875Z,5.87
2019-01-24T03:47:39.157Z,5.03
2019-01-24T03:50:11.698Z,5.60
2019-01-24T03:52:42.058Z,5.35
2019-01-24T03:55:12.908Z,5.22
2019-01-24T03:57:43.321Z,5.22
2019-01-24T04:00:18.189Z,4.97
2019-01-24T04:02:48.551Z,5.40
2019-01-24T04:05:18.847Z,5.70
2019-01-24T04:07:49.217Z,5.58
2019-01-24T04:10:20.527Z,5.67
2019-01-24T04:12:50.971Z,5.33
2019-01-24T04:15:23.993Z,4.95
2019-01-24T04:17:54.424Z,5.12
2019-01-24T04:20:24.853Z,5.20
2019-01-24T04:22:55.226Z,5.15
2019-01-24T04:25:25.641Z,5.47
2019-01-24T04:27:56.084Z,4.37
2019-01-24T04:30:26.529Z,5.60
2019-01-24T04:32:56.793Z,5.45
2019-01-24T04:35:27.323Z,4.70
2019-01-24T04:37:57.742Z,4.70
2019-01-24T04:40:28.129Z,5.30
2019-01-24T04:42:58.559Z,4.85
2019-01-24T04:45:28.899Z,5.40
2019-01-24T04:47:59.312Z,4.90
2019-01-24T04:50:29.675Z,4.95
2019-01-24T04:53:00.022Z,4.92
2019-01-24T04:55:30.376Z,5.12
2019-01-24T04:58:00.785Z,4.70
2019-01-24T05:00:31.797Z,4.90
2019-01-24T05:03:02.133Z,4.80
2019-01-24T05:05:32.379Z,4.83
2019-01-24T05:08:02.753Z,5.00
2019-01-24T05:10:33.131Z,5.08
2019-01-24T05:13:03.543Z,4.62
2019-01-24T05:15:33.910Z,4.90
2019-01-24T05:18:04.440Z,4.60
2019-01-24T05:20:34.805Z,5.05
2019-01-24T05:23:05.264Z,4.90
2019-01-24T05:25:35.713Z,4.72
2019-01-24T05:28:06.133Z,4.50
2019-01-24T05:30:36.433Z,4.90
2019-01-24T05:33:06.835Z,5.08
2019-01-24T05:35:37.307Z,4.95
2019-01-24T05:38:07.796Z,4.70
2019-01-24T05:40:38.159Z,4.65
2019-01-24T05:43:08.472Z,4.60
2019-01-24T05:45:38.781Z,4.67
2019-01-24T05:48:09.148Z,5.00
2019-01-24T05:50:39.596Z,5.17
2019-01-24T05:53:09.915Z,4.95
2019-01-24T05:55:40.244Z,4.75
2019-01-24T05:58:10.666Z,4.85
2019-01-24T06:00:45.088Z,4.80
2019-01-24T06:03:15.469Z,4.30
2019-01-24T06:05:45.938Z,5.00
2019-01-24T06:08:16.232Z,5.80
2019-01-24T06:10:46.666Z,5.72
2019-01-24T06:13:17.074Z,6.53
2019-01-24T06:15:47.411Z,6.00
2019-01-24T06:18:18.811Z,6.07
2019-01-24T06:20:49.114Z,5.90
2019-01-24T06:23:19.539Z,6.15
2019-01-24T06:25:49.998Z,6.37
2019-01-24T06:28:20.309Z,6.30
2019-01-24T06:30:50.693Z,6.12
2019-01-24T06:33:21.167Z,6.10
2019-01-24T06:35:51.894Z,6.67
2019-01-24T06:38:22.429Z,6.10
2019-01-24T06:40:52.657Z,6.42
2019-01-24T06:43:22.976Z,6.17
2019-01-24T06:45:53.479Z,6.55
2019-01-24T06:48:25.011Z,6.37
2019-01-24T06:50:55.202Z,6.00
2019-01-24T06:53:27.861Z,5.83
2019-01-24T06:56:01.302Z,6.57
2019-01-24T06:58:33.579Z,6.00
2019-01-24T07:01:04.122Z,6.30
2019-01-24T07:03:34.490Z,5.80
2019-01-24T07:06:07.594Z,5.73
2019-01-24T07:08:38.124Z,6.20
2019-01-24T07:11:18.343Z,5.93
2019-01-24T07:13:48.855Z,6.37
2019-01-24T07:16:19.996Z,6.33
2019-01-24T07:18:50.852Z,5.80
2019-01-24T07:21:45.779Z,5.93
2019-01-24T07:24:22.481Z,6.42
2019-01-24T07:27:20.937Z,6.60
2019-01-24T07:42:16.532Z,6.15
2019-01-24T07:44:48.557Z,6.27
2019-01-24T07:47:26.708Z,5.50
2019-01-24T07:50:05.435Z,5.83
2019-01-24T07:52:37.557Z,4.92
2019-01-24T07:55:13.004Z,5.30
2019-01-24T08:03:28.233Z,4.83
2019-01-24T08:05:58.706Z,4.85
2019-01-24T08:08:30.196Z,5.05
2019-01-24T08:11:00.800Z,4.65
2019-01-24T08:13:31.682Z,4.58
2019-01-24T08:49:02.024Z,4.85
2019-01-24T09:06:06.545Z,4.70
2019-01-24T09:08:39.629Z,5.08
2019-01-24T09:11:14.889Z,5.67
2019-01-24T09:17:23.555Z,4.92
2019-01-24T09:23:03.624Z,5.60
2019-01-24T09:25:59.704Z,5.45
2019-01-24T09:31:13.753Z,5.60
2019-01-24T09:36:45.757Z,4.87
2019-01-24T09:51:08.685Z,5.65
2019-01-24T09:53:44.663Z,5.20
2019-01-24T09:56:36.117Z,5.37
2019-01-24T09:59:07.916Z,4.85
2019-01-24T10:04:54.534Z,5.17
2019-01-24T10:07:28.178Z,4.78
2019-01-24T10:13:04.541Z,5.17
2019-01-24T10:21:05.988Z,6.10
2019-01-24T10:23:38.641Z,6.10
2019-01-24T10:26:09.606Z,5.12
2019-01-24T10:28:40.844Z,6.92
2019-01-24T10:31:20.107Z,5.47
2019-01-24T10:36:25.686Z,5.83
2019-01-24T10:38:59.071Z,5.85
2019-01-24T10:41:38.479Z,6.15
2019-01-24T10:44:12.417Z,5.67
2019-01-24T10:46:44.714Z,6.53
2019-01-24T10:49:19.849Z,6.00
2019-01-24T10:52:04.150Z,7.00
2019-01-24T10:54:28.497Z,7.03
2019-01-24T10:59:55.860Z,6.10
2019-01-24T11:08:31.349Z,6.33
2019-01-24T11:13:52.495Z,7.20
2019-01-24T11:16:25.096Z,7.60
2019-01-24T11:18:55.628Z,7.50
2019-01-24T11:21:27.237Z,6.47
2019-01-24T11:23:58.072Z,6.70
2019-01-24T11:26:30.788Z,6.70
2019-01-24T11:29:01.223Z,7.50
2019-01-24T11:31:33.363Z,6.80
2019-01-24T11:34:07.078Z,7.60
2019-01-24T11:36:56.885Z,6.85
2019-01-24T11:39:49.522Z,7.20
2019-01-24T11:42:21.009Z,6.80
2019-01-24T11:44:51.484Z,6.93
2019-01-24T11:47:28.128Z,7.20
2019-01-24T11:50:20.629Z,7.27
2019-01-24T11:56:09.685Z,6.77
2019-01-24T12:02:18.225Z,6.70
2019-01-24T12:05:38.956Z,6.93
2019-01-24T12:09:24.308Z,7.07
2019-01-24T12:12:45.407Z,6.90
2019-01-24T12:16:08.155Z,7.43
2019-01-24T12:20:54.572Z,6.97
2019-01-24T12:26:09.645Z,6.70
2019-01-24T12:28:45.129Z,6.83
2019-01-24T12:34:16.631Z,7.27
2019-01-24T12:36:49.536Z,6.90
2019-01-24T12:45:02.713Z,6.37
2019-01-24T12:47:37.719Z,5.93
2019-01-24T12:53:22.243Z,6.90
2019-01-24T12:55:56.585Z,6.30
2019-01-24T12:58:34.601Z,6.47
2019-01-24T13:04:05.038Z,7.07
2019-01-24T13:15:26.984Z,8.30
2019-01-24T13:21:11.261Z,8.87
2019-01-24T13:23:57.368Z,10.60
2019-01-24T13:26:49.673Z,9.48
2019-01-24T13:32:11.064Z,8.83
2019-01-24T13:37:46.529Z,8.45
2019-01-24T13:51:24.963Z,8.73
2019-01-24T14:03:42.191Z,8.50
2019-01-24T14:12:26.718Z,8.33
2019-01-24T14:15:08.025Z,9.10
2019-01-24T14:23:18.506Z,9.83
2019-01-24T14:28:41.476Z,8.63
2019-01-24T14:37:11.341Z,8.75
2019-01-24T14:42:12.220Z,7.37
2019-01-24T14:44:46.304Z,6.90
2019-01-24T14:47:33.492Z,6.30
2019-01-24T14:52:53.938Z,7.17
2019-01-24T14:55:38.156Z,7.30
2019-01-24T15:01:08.116Z,6.42
2019-01-24T15:03:54.795Z,6.08
2019-01-24T15:07:10.840Z,6.42
2019-01-24T15:09:43.720Z,6.40
2019-01-24T15:12:19.842Z,7.28
2019-01-24T15:14:50.216Z,7.53
2019-01-24T15:17:22.191Z,7.08
2019-01-24T15:20:05.005Z,6.65
2019-01-24T15:22:35.528Z,7.10
2019-01-24T15:25:08.062Z,8.05
2019-01-24T15:27:39.570Z,7.45
2019-01-24T15:30:13.097Z,7.22
2019-01-24T15:32:44.483Z,7.28
2019-01-24T15:35:14.784Z,7.55
2019-01-24T15:37:45.579Z,7.25
2019-01-24T15:40:22.351Z,7.83
2019-01-24T15:42:52.786Z,7.90
2019-01-24T15:45:23.256Z,7.20
2019-01-24T15:47:53.794Z,7.50
2019-01-24T15:50:24.463Z,7.40
2019-01-24T15:52:54.981Z,7.53
2019-01-24T15:55:25.279Z,7.30
2019-01-24T15:57:55.640Z,7.65
2019-01-24T16:00:28.178Z,7.28
2019-01-24T16:02:58.817Z,8.08
2019-01-24T16:05:29.149Z,8.68
2019-01-24T16:08:01.801Z,7.87
2019-01-24T16:10:31.574Z,8.55
2019-01-24T16:13:01.943Z,7.90
2019-01-24T16:15:34.467Z,9.28
2019-01-24T16:18:06.458Z,8.55
2019-01-24T16:20:36.749Z,8.28
2019-01-24T16:23:07.751Z,8.33
2019-01-24T16:25:38.466Z,9.17
2019-01-24T16:28:09.246Z,8.63
2019-01-24T16:30:39.720Z,8.70
2019-01-24T16:33:10.350Z,8.80
2019-01-24T16:35:41.452Z,8.83
2019-01-24T16:38:13.421Z,8.83
2019-01-24T16:40:43.709Z,9.48
2019-01-24T16:43:14.176Z,9.10
2019-01-24T16:45:44.873Z,9.18
2019-01-24T16:48:15.530Z,8.98
2019-01-24T16:50:46.163Z,8.50
2019-01-24T16:53:16.583Z,8.70
2019-01-24T16:55:46.961Z,8.68
2019-01-24T16:58:18.934Z,8.93
2019-01-24T17:01:17.101Z,9.90
2019-01-24T17:03:47.620Z,8.90
2019-01-24T17:06:18.096Z,9.50
2019-01-24T17:08:49.673Z,9.15
2019-01-24T17:11:20.091Z,9.70
2019-01-24T17:13:50.533Z,10.20
2019-01-24T17:16:20.996Z,9.68
2019-01-24T17:18:51.677Z,10.85
2019-01-24T17:21:22.258Z,10.28
2019-01-24T17:23:52.753Z,10.05
2019-01-24T17:26:23.090Z,11.03
2019-01-24T17:28:53.555Z,10.43
2019-01-24T17:31:23.926Z,11.28
2019-01-24T17:33:54.511Z,10.98
2019-01-24T17:36:24.910Z,11.68
2019-01-24T17:38:55.320Z,11.43
2019-01-24T17:41:25.776Z,12.73
2019-01-24T17:43:56.307Z,12.63
2019-01-24T17:46:26.698Z,12.03
2019-01-24T17:48:57.115Z,11.75
2019-01-24T17:51:27.496Z,12.07
2019-01-24T17:53:57.878Z,12.00
2019-01-24T17:56:28.134Z,13.28
2019-01-24T17:58:58.560Z,12.90
2019-01-24T18:01:29.036Z,12.35
2019-01-24T18:03:59.445Z,12.93
2019-01-24T18:06:29.781Z,13.30
2019-01-24T18:09:00.279Z,10.82
2019-01-24T18:11:31.861Z,10.48
2019-01-24T18:14:02.299Z,10.70
2019-01-24T18:16:32.676Z,10.58
2019-01-24T18:19:03.041Z,10.45
2019-01-24T18:21:33.383Z,10.45
2019-01-24T18:24:03.923Z,10.75
2019-01-24T18:26:34.404Z,9.98
2019-01-24T18:29:05.878Z,10.58
2019-01-24T18:31:36.392Z,9.70
2019-01-24T18:34:06.880Z,9.75
2019-01-24T18:36:37.285Z,9.60
2019-01-24T18:39:10.637Z,10.05
2019-01-24T18:41:41.138Z,10.00
2019-01-24T18:44:11.395Z,9.93
2019-01-24T18:46:41.779Z,9.78
2019-01-24T18:49:12.062Z,9.65
2019-01-24T18:51:42.446Z,10.00
2019-01-24T18:54:12.918Z,8.80
2019-01-24T18:56:43.258Z,9.53
2019-01-24T18:59:13.675Z,9.68
2019-01-24T19:01:44.032Z,9.18
2019-01-24T19:04:14.501Z,10.28
2019-01-24T19:06:44.848Z,9.78
2019-01-24T19:09:15.365Z,9.68
2019-01-24T19:11:45.837Z,9.08
2019-01-24T19:14:16.458Z,8.95
2019-01-24T19:16:47.038Z,8.63
2019-01-24T19:19:17.485Z,10.55
2019-01-24T19:21:47.980Z,9.33
2019-01-24T19:24:18.370Z,9.10
2019-01-24T19:26:48.836Z,10.30
2019-01-24T19:29:19.195Z,9.60
2019-01-24T19:31:49.696Z,9.20
2019-01-24T19:34:20.062Z,9.38
2019-01-24T19:36:50.466Z,8.88
2019-01-24T19:39:20.827Z,9.57
2019-01-24T19:41:51.214Z,9.30
2019-01-24T19:44:21.606Z,9.03
2019-01-24T19:46:51.954Z,10.05
2019-01-24T19:49:22.340Z,9.28
2019-01-24T19:51:52.705Z,9.30
2019-01-24T19:54:23.196Z,9.40
2019-01-24T19:56:54.518Z,9.88
2019-01-24T19:59:26.233Z,9.28
2019-01-24T20:01:56.693Z,8.98
2019-01-24T20:04:27.206Z,9.18
2019-01-24T20:06:57.699Z,9.45
2019-01-24T20:09:28.234Z,8.93
2019-01-24T20:11:58.648Z,8.55
2019-01-24T20:14:28.928Z,9.03
2019-01-24T20:16:59.436Z,9.33
2019-01-24T20:19:29.843Z,8.85
2019-01-24T20:22:00.176Z,8.25
2019-01-24T20:24:30.574Z,8.90
2019-01-24T20:27:02.062Z,9.53
2019-01-24T20:29:32.532Z,9.65
2019-01-24T20:32:03.009Z,8.75
2019-01-24T20:34:33.374Z,8.18
2019-01-24T20:37:03.813Z,9.08
2019-01-24T20:39:34.243Z,8.55
2019-01-24T20:42:04.709Z,8.53
2019-01-24T20:44:35.185Z,8.23
2019-01-24T20:47:05.524Z,9.00
2019-01-24T20:49:35.979Z,9.23
2019-01-24T20:52:06.418Z,8.80
2019-01-24T20:54:36.831Z,8.58
2019-01-24T20:57:07.188Z,9.15
2019-01-24T20:59:37.503Z,8.63
2019-01-24T21:02:07.984Z,8.80
2019-01-24T21:04:38.460Z,9.30
2019-01-24T21:07:08.891Z,8.25
2019-01-24T21:09:39.392Z,9.05
2019-01-24T21:12:09.708Z,8.88
2019-01-24T21:14:40.098Z,8.75
2019-01-24T21:17:10.397Z,9.60
2019-01-24T21:19:40.898Z,8.68
2019-01-24T21:22:11.260Z,9.23
2019-01-24T21:24:41.673Z,8.75
2019-01-24T21:27:12.090Z,8.93
2019-01-24T21:29:42.462Z,8.53
2019-01-24T21:32:12.800Z,8.75
2019-01-24T21:34:43.202Z,8.15
2019-01-24T21:37:13.530Z,8.58
2019-01-24T21:39:43.859Z,8.90
2019-01-24T21:42:14.205Z,8.33
2019-01-24T21:44:44.582Z,8.23
2019-01-24T21:47:14.909Z,8.80
2019-01-24T21:49:45.299Z,8.43
2019-01-24T21:52:15.745Z,8.23
2019-01-24T21:54:47.234Z,8.45
2019-01-24T21:57:17.761Z,8.30
2019-01-24T21:59:48.198Z,8.85
2019-01-24T22:02:18.610Z,8.55
2019-01-24T22:04:48.901Z,8.53
2019-01-24T22:07:20.509Z,8.80
2019-01-24T22:09:52.003Z,8.45
2019-01-24T22:12:22.433Z,7.90
2019-01-24T22:14:52.849Z,8.50
2019-01-24T22:17:24.428Z,8.33
2019-01-24T22:19:54.764Z,8.43
2019-01-24T22:22:25.215Z,8.35
2019-01-24T22:24:55.560Z,7.95
2019-01-24T22:27:25.972Z,7.72
2019-01-24T22:29:56.354Z,7.92
2019-01-24T22:32:26.658Z,8.13
2019-01-24T22:34:57.046Z,8.33
2019-01-24T22:37:27.336Z,8.20
2019-01-24T22:39:57.626Z,7.65
2019-01-24T22:42:27.881Z,8.33
2019-01-24T22:44:58.360Z,7.83
2019-01-24T22:47:28.874Z,7.78
2019-01-24T22:49:59.264Z,7.55
2019-01-24T22:52:29.591Z,7.25
2019-01-24T22:55:00.073Z,8.38
2019-01-24T22:57:30.347Z,7.72
2019-01-24T23:00:00.669Z,8.65
2019-01-24T23:02:32.187Z,7.58
2019-01-24T23:05:02.514Z,8.30
2019-01-24T23:07:32.920Z,7.72
2019-01-24T23:10:03.269Z,8.03
2019-01-24T23:12:34.107Z,8.25
2019-01-24T23:15:05.471Z,7.25
2019-01-24T23:17:35.937Z,8.80
2019-01-24T23:20:07.774Z,8.23
2019-01-24T23:22:38.133Z,7.35
2019-01-24T23:25:08.469Z,7.75
2019-01-24T23:27:38.880Z,7.80
2019-01-24T23:30:09.296Z,7.50
2019-01-24T23:32:39.725Z,7.50
2019-01-24T23:35:10.134Z,7.45
2019-01-24T23:37:40.560Z,7.55
2019-01-24T23:40:11.555Z,7.80
2019-01-24T23:42:41.873Z,7.40
2019-01-24T23:45:12.118Z,7.78
2019-01-24T23:47:42.480Z,7.55
2019-01-24T23:50:12.779Z,7.00
2019-01-24T23:52:43.158Z,7.40
2019-01-24T23:55:13.487Z,7.17
2019-01-24T23:57:43.790Z,7.37
